Westwood Rainier — C6SI3 — position and weather

sailwx.info

Track history (hours):
 
Tides and Currents Weather Stations Pressure Air Temp Water Temp Dewpoint Dewpoint Depression Visibility Wind Speed Wind Dir Waves Ship Positions

Westwood Rainier

Last reported at 2015-May-05 20:00 UTC. Time now 2015-May-07 07:39 UTC.
Position N 49°12' E 165°12'.

Type: Cargo ship. MMSI: 311348993.

Wind from 070 at 20 knots

Waves 3.0 meters (10 feet), 3 second period

Barometer 1022.1 mb
Air temperature 4.0 ° C
Visibility: greater than 5.4 NM
Dewpoint 1.4 ° C
Water temperature 5.0 ° C

Date/timePositionNaut miles runAvg speedWind from/ knotsBaromVisibWave heightAir tempDewpointWater temp
2015-May-05 20:00N 49°12' E 165°12'34214.9 070 / 201022.1 5.4 3.0 4.0 1.4 5.0
2015-May-04 21:00N 46°12' E 158°00'37715.7 130 / 251020.6 5.4 2.0 6.0 3.6 5.0
2015-May-03 21:00N 42°24' E 151°00'42015.2 160 / 151017.8 5.4 2.0 7.0 4.7 5.0
2015-May-02 17:26N 37°44' E 144°11'1714.8
2015-May-02 16:19N 37°32' E 143°57'1514.9
2015-May-02 15:20N 37°22' E 143°44'1215.4
2015-May-02 14:34N 37°14' E 143°33'1815.3
2015-May-02 13:23N 37°01' E 143°17'1315.3
2015-May-02 12:33N 36°53' E 143°05'1615.4
2015-May-02 11:32N 36°41' E 142°51'13717.1
2015-May-02 03:31N 35°14' E 140°42'1515.3
2015-May-02 02:30N 35°04' E 140°27'1415.2
2015-May-02 01:33N 34°57' E 140°12'1914.8
2015-May-02 00:18N 34°50' E 139°51'1013.8
2015-May-01 23:33N 34°53' E 139°39'1615.5
2015-May-01 22:33N 35°07' E 139°45'1111.1
2015-May-01 21:33N 35°18' E 139°43'1312.6
2015-May-01 20:33N 35°30' E 139°51'7 7.3
2015-May-01 19:33N 35°36' E 139°47'0 0.0
2015-May-01 18:33N 35°36' E 139°47'0 0.0
2015-May-01 17:27N 35°36' E 139°47'0 0.0
2015-May-01 16:33N 35°36' E 139°47'0 0.0
2015-May-01 15:30N 35°36' E 139°47'0 0.0
2015-May-01 14:33N 35°36' E 139°47'0 0.0
2015-May-01 13:33N 35°36' E 139°47'0 0.1
2015-May-01 12:33N 35°36' E 139°47'9 8.8
2015-May-01 11:34N 35°28' E 139°51'1212.1
2015-May-01 10:33N 35°17' E 139°46'1211.7
2015-May-01 09:33N 35°05' E 139°45'1514.6
2015-May-01 08:33N 34°51' E 139°39'3014.0
2015-May-01 06:24N 34°32' E 139°11'44 8.7
2015-May-01 01:17N 35°02' E 138°30'0 0.0
2015-May-01 00:28N 35°02' E 138°30'0 0.0
2015-Apr-30 23:16N 35°02' E 138°30'0 0.0
2015-Apr-30 22:28N 35°02' E 138°30'0 0.0
2015-Apr-30 21:25N 35°02' E 138°30'0 0.0
2015-Apr-30 20:31N 35°02' E 138°30'190 5.4
2015-Apr-29 09:24N 33°53' E 134°56'1214.6
2015-Apr-29 08:33N 34°06' E 134°57'1414.0
2015-Apr-29 07:33N 34°19' E 134°59'1515.3
2015-Apr-29 06:33N 34°31' E 135°12'1312.7
2015-Apr-29 05:33N 34°37' E 135°25'0 0.1
2015-Apr-29 04:22N 34°38' E 135°25'0 0.0
2015-Apr-29 03:29N 34°38' E 135°25'0 0.0
2015-Apr-29 02:29N 34°38' E 135°25'0 0.0
2015-Apr-29 01:29N 34°38' E 135°25'0 0.0
2015-Apr-29 00:29N 34°38' E 135°25'0 0.0
2015-Apr-28 23:28N 34°38' E 135°25'0 0.0
2015-Apr-28 22:28N 34°38' E 135°25'2 1.8
2015-Apr-28 21:33N 34°38' E 135°23'10 9.8
2015-Apr-28 20:33N 34°32' E 135°14'1514.7
2015-Apr-28 19:33N 34°21' E 135°02'1413.8
2015-Apr-28 18:33N 34°07' E 134°60'1010.0
2015-Apr-28 17:32N 33°57' E 134°58'20410.2
2015-Apr-27 21:26N 34°01' E 130°52'10212.4
2015-Apr-27 13:09N 35°00' E 129°11'711.3
2015-Apr-27 12:34N 35°06' E 129°05'1 0.8
2015-Apr-27 11:27N 35°06' E 129°06'0 0.0
2015-Apr-27 10:33N 35°06' E 129°06'0 0.0
2015-Apr-27 09:15N 35°06' E 129°06'0 0.0
2015-Apr-27 08:30N 35°06' E 129°06'0 0.0
2015-Apr-27 07:30N 35°06' E 129°06'0 0.0
2015-Apr-27 06:33N 35°06' E 129°06'0 0.0
2015-Apr-27 05:15N 35°06' E 129°06'0 0.0
2015-Apr-27 04:33N 35°06' E 129°06'0 0.0
2015-Apr-27 03:33N 35°06' E 129°06'0 0.0
2015-Apr-27 02:33N 35°06' E 129°06'0 0.0
2015-Apr-27 01:21N 35°06' E 129°06'0 0.0
2015-Apr-27 00:30N 35°06' E 129°06'0 0.0
2015-Apr-26 23:33N 35°06' E 129°06'0 0.0
2015-Apr-26 22:33N 35°06' E 129°06'0 0.0
2015-Apr-26 21:33N 35°06' E 129°06'0 0.0
2015-Apr-26 20:33N 35°06' E 129°06'0 0.0
2015-Apr-26 19:27N 35°06' E 129°06'0 0.0
2015-Apr-26 18:33N 35°06' E 129°06'0 0.0
2015-Apr-26 17:33N 35°06' E 129°06'0 0.0
2015-Apr-26 16:33N 35°06' E 129°06'0 0.0
2015-Apr-26 15:27N 35°06' E 129°06'0 0.0
2015-Apr-26 14:33N 35°06' E 129°06'4 3.6
2015-Apr-26 13:33N 35°04' E 129°09'48 9.1
2015-Apr-26 08:16N 34°36' E 129°56'5313.9
2015-Apr-26 04:26N 34°03' E 130°48'  
Track history (hours):
 
Tides and Currents Weather Stations Pressure Air Temp Water Temp Dewpoint Dewpoint Depression Visibility Wind Speed Wind Dir Waves Ship Positions

Westwood Rainier

Last reported at 2015-May-05 20:00 UTC. Time now 2015-May-07 07:39 UTC.
Position N 49°12' E 165°12'.

Type: Cargo ship. MMSI: 311348993.

Wind from 070 at 20 knots

Waves 3.0 meters (10 feet), 3 second period

Barometer 1022.1 mb
Air temperature 4.0 ° C
Visibility: greater than 5.4 NM
Dewpoint 1.4 ° C
Water temperature 5.0 ° C

Date/timePositionNaut miles runAvg speedWind from/ knotsBaromVisibWave heightAir tempDewpointWater temp
2015-May-05 20:00N 49°12' E 165°12'34214.9 070 / 201022.1 5.4 3.0 4.0 1.4 5.0
2015-May-04 21:00N 46°12' E 158°00'37715.7 130 / 251020.6 5.4 2.0 6.0 3.6 5.0
2015-May-03 21:00N 42°24' E 151°00'42015.2 160 / 151017.8 5.4 2.0 7.0 4.7 5.0
2015-May-02 17:26N 37°44' E 144°11'1714.8
2015-May-02 16:19N 37°32' E 143°57'1514.9
2015-May-02 15:20N 37°22' E 143°44'1215.4
2015-May-02 14:34N 37°14' E 143°33'1815.3
2015-May-02 13:23N 37°01' E 143°17'1315.3
2015-May-02 12:33N 36°53' E 143°05'1615.4
2015-May-02 11:32N 36°41' E 142°51'13717.1
2015-May-02 03:31N 35°14' E 140°42'1515.3
2015-May-02 02:30N 35°04' E 140°27'1415.2
2015-May-02 01:33N 34°57' E 140°12'1914.8
2015-May-02 00:18N 34°50' E 139°51'1013.8
2015-May-01 23:33N 34°53' E 139°39'1615.5
2015-May-01 22:33N 35°07' E 139°45'1111.1
2015-May-01 21:33N 35°18' E 139°43'1312.6
2015-May-01 20:33N 35°30' E 139°51'7 7.3
2015-May-01 19:33N 35°36' E 139°47'0 0.0
2015-May-01 18:33N 35°36' E 139°47'0 0.0
2015-May-01 17:27N 35°36' E 139°47'0 0.0
2015-May-01 16:33N 35°36' E 139°47'0 0.0
2015-May-01 15:30N 35°36' E 139°47'0 0.0
2015-May-01 14:33N 35°36' E 139°47'0 0.0
2015-May-01 13:33N 35°36' E 139°47'0 0.1
2015-May-01 12:33N 35°36' E 139°47'9 8.8
2015-May-01 11:34N 35°28' E 139°51'1212.1
2015-May-01 10:33N 35°17' E 139°46'1211.7
2015-May-01 09:33N 35°05' E 139°45'1514.6
2015-May-01 08:33N 34°51' E 139°39'3014.0
2015-May-01 06:24N 34°32' E 139°11'44 8.7
2015-May-01 01:17N 35°02' E 138°30'0 0.0
2015-May-01 00:28N 35°02' E 138°30'0 0.0
2015-Apr-30 23:16N 35°02' E 138°30'0 0.0
2015-Apr-30 22:28N 35°02' E 138°30'0 0.0
2015-Apr-30 21:25N 35°02' E 138°30'0 0.0
2015-Apr-30 20:31N 35°02' E 138°30'190 5.4
2015-Apr-29 09:24N 33°53' E 134°56'1214.6
2015-Apr-29 08:33N 34°06' E 134°57'1414.0
2015-Apr-29 07:33N 34°19' E 134°59'1515.3
2015-Apr-29 06:33N 34°31' E 135°12'1312.7
2015-Apr-29 05:33N 34°37' E 135°25'0 0.1
2015-Apr-29 04:22N 34°38' E 135°25'0 0.0
2015-Apr-29 03:29N 34°38' E 135°25'0 0.0
2015-Apr-29 02:29N 34°38' E 135°25'0 0.0
2015-Apr-29 01:29N 34°38' E 135°25'0 0.0
2015-Apr-29 00:29N 34°38' E 135°25'0 0.0
2015-Apr-28 23:28N 34°38' E 135°25'0 0.0
2015-Apr-28 22:28N 34°38' E 135°25'2 1.8
2015-Apr-28 21:33N 34°38' E 135°23'10 9.8
2015-Apr-28 20:33N 34°32' E 135°14'1514.7
2015-Apr-28 19:33N 34°21' E 135°02'1413.8
2015-Apr-28 18:33N 34°07' E 134°60'1010.0
2015-Apr-28 17:32N 33°57' E 134°58'20410.2
2015-Apr-27 21:26N 34°01' E 130°52'10212.4
2015-Apr-27 13:09N 35°00' E 129°11'711.3
2015-Apr-27 12:34N 35°06' E 129°05'1 0.8
2015-Apr-27 11:27N 35°06' E 129°06'0 0.0
2015-Apr-27 10:33N 35°06' E 129°06'0 0.0
2015-Apr-27 09:15N 35°06' E 129°06'0 0.0
2015-Apr-27 08:30N 35°06' E 129°06'0 0.0
2015-Apr-27 07:30N 35°06' E 129°06'0 0.0
2015-Apr-27 06:33N 35°06' E 129°06'0 0.0
2015-Apr-27 05:15N 35°06' E 129°06'0 0.0
2015-Apr-27 04:33N 35°06' E 129°06'0 0.0
2015-Apr-27 03:33N 35°06' E 129°06'0 0.0
2015-Apr-27 02:33N 35°06' E 129°06'0 0.0
2015-Apr-27 01:21N 35°06' E 129°06'0 0.0
2015-Apr-27 00:30N 35°06' E 129°06'0 0.0
2015-Apr-26 23:33N 35°06' E 129°06'0 0.0
2015-Apr-26 22:33N 35°06' E 129°06'0 0.0
2015-Apr-26 21:33N 35°06' E 129°06'0 0.0
2015-Apr-26 20:33N 35°06' E 129°06'0 0.0
2015-Apr-26 19:27N 35°06' E 129°06'0 0.0
2015-Apr-26 18:33N 35°06' E 129°06'0 0.0
2015-Apr-26 17:33N 35°06' E 129°06'0 0.0
2015-Apr-26 16:33N 35°06' E 129°06'0 0.0
2015-Apr-26 15:27N 35°06' E 129°06'0 0.0
2015-Apr-26 14:33N 35°06' E 129°06'4 3.6
2015-Apr-26 13:33N 35°04' E 129°09'48 9.1
2015-Apr-26 08:16N 34°36' E 129°56'5313.9
2015-Apr-26 04:26N 34°03' E 130°48'  

Dump ship's entire track history